JAL76 YSSY-YMML
Flight info
| Callsign | JAL76 |
|---|---|
| Flight time | 1h 3m |
| Altitude | 40000 |
| Route | TESAT H65 LEECE Q29 ML |
| Aircraft | A359/H-SDE2E3GHIJ3J4J5LM1ORWXY/LB1D1 |
Departure
| Time | 2026-05-05 04:39 |
|---|---|
| Airport | Sydney Kingsford Smith International Airport (YSSY) |
Arrival
| Time | 2026-05-05 05:42 |
|---|---|
| Airport | Melbourne Airport (YMML) |
| Time | Latitude | Longitude | Altitude | Speed | Heading |
|---|---|---|---|---|---|
| 2026-05-05 03:45 | -33.93477 | 151.16798 | 36 ft | 0 kts | 258° |
| 2026-05-05 04:25 | -33.93472 | 151.16836 | 36 ft | 3 kts | 260° |
| 2026-05-05 04:25 | -33.93469 | 151.16858 | 34 ft | 3 kts | 260° |
| 2026-05-05 04:25 | -33.93465 | 151.16879 | 33 ft | 3 kts | 260° |
| 2026-05-05 04:25 | -33.93464 | 151.16903 | 32 ft | 3 kts | 280° |
| 2026-05-05 04:26 | -33.93470 | 151.16925 | 33 ft | 3 kts | 301° |
| 2026-05-05 04:26 | -33.93472 | 151.16928 | 34 ft | 0 kts | 302° |
| 2026-05-05 04:31 | -33.93471 | 151.16928 | 34 ft | 1 kts | 302° |
| 2026-05-05 04:32 | -33.93419 | 151.16894 | 36 ft | 11 kts | 346° |
| 2026-05-05 04:32 | -33.93332 | 151.16898 | 36 ft | 14 kts | 19° |
| 2026-05-05 04:32 | -33.93292 | 151.16918 | 36 ft | 0 kts | 24° |
| 2026-05-05 04:32 | -33.93247 | 151.16940 | 36 ft | 14 kts | 17° |
| 2026-05-05 04:33 | -33.93120 | 151.16928 | 36 ft | 17 kts | 348° |
| 2026-05-05 04:33 | -33.93024 | 151.16913 | 36 ft | 11 kts | 12° |
| 2026-05-05 04:33 | -33.92985 | 151.16963 | 36 ft | 8 kts | 66° |
| 2026-05-05 04:33 | -33.92972 | 151.17014 | 37 ft | 0 kts | 76° |
| 2026-05-05 04:36 | -33.92967 | 151.17041 | 37 ft | 10 kts | 77° |
| 2026-05-05 04:36 | -33.92961 | 151.17139 | 37 ft | 9 kts | 99° |
| 2026-05-05 04:36 | -33.93004 | 151.17176 | 37 ft | 0 kts | 163° |
| 2026-05-05 04:38 | -33.93064 | 151.17192 | 37 ft | 29 kts | 168° |
| 2026-05-05 04:38 | -33.93528 | 151.17311 | 33 ft | 105 kts | 168° |
| 2026-05-05 04:38 | -33.94462 | 151.17562 | 36 ft | 167 kts | 168° |
| 2026-05-05 04:38 | -33.95707 | 151.17893 | 464 ft | 188 kts | 169° |
| 2026-05-05 04:39 | -33.96962 | 151.18308 | 1429 ft | 192 kts | 164° |
| 2026-05-05 04:39 | -33.98321 | 151.18649 | 1742 ft | 209 kts | 176° |
| 2026-05-05 04:39 | -33.99807 | 151.18395 | 2043 ft | 222 kts | 196° |
| 2026-05-05 04:39 | -34.01350 | 151.17996 | 2464 ft | 233 kts | 193° |
| 2026-05-05 04:40 | -34.03051 | 151.17822 | 2729 ft | 259 kts | 177° |
| 2026-05-05 04:40 | -34.04871 | 151.18245 | 3309 ft | 271 kts | 168° |
| 2026-05-05 04:40 | -34.06677 | 151.18829 | 4003 ft | 273 kts | 167° |
| 2026-05-05 04:40 | -34.08547 | 151.19452 | 4700 ft | 277 kts | 167° |
| 2026-05-05 04:41 | -34.10387 | 151.20068 | 5347 ft | 280 kts | 167° |
| 2026-05-05 04:41 | -34.12281 | 151.20705 | 5970 ft | 285 kts | 167° |
| 2026-05-05 04:41 | -34.14218 | 151.21351 | 6756 ft | 291 kts | 167° |
| 2026-05-05 04:41 | -34.16181 | 151.22005 | 7681 ft | 294 kts | 167° |
| 2026-05-05 04:42 | -34.18194 | 151.22488 | 8582 ft | 297 kts | 180° |
| 2026-05-05 04:42 | -34.20210 | 151.22144 | 9517 ft | 292 kts | 205° |
| 2026-05-05 04:42 | -34.21911 | 151.20863 | 10387 ft | 289 kts | 228° |
| 2026-05-05 04:42 | -34.23310 | 151.19040 | 10944 ft | 302 kts | 235° |
| 2026-05-05 04:43 | -34.24674 | 151.17063 | 11716 ft | 310 kts | 235° |
| 2026-05-05 04:43 | -34.26069 | 151.15057 | 12596 ft | 314 kts | 234° |
| 2026-05-05 04:43 | -34.27496 | 151.13032 | 13494 ft | 319 kts | 234° |
| 2026-05-05 04:43 | -34.28942 | 151.10978 | 14352 ft | 322 kts | 234° |
| 2026-05-05 04:44 | -34.30407 | 151.08901 | 15107 ft | 327 kts | 234° |
| 2026-05-05 04:44 | -34.31895 | 151.06795 | 15859 ft | 331 kts | 234° |
| 2026-05-05 04:44 | -34.33403 | 151.04664 | 16618 ft | 336 kts | 234° |
| 2026-05-05 04:44 | -34.34928 | 151.02509 | 17370 ft | 340 kts | 234° |
| 2026-05-05 04:45 | -34.36484 | 151.00321 | 18131 ft | 345 kts | 234° |
| 2026-05-05 04:45 | -34.38159 | 150.98251 | 18723 ft | 356 kts | 228° |
| 2026-05-05 04:45 | -34.40032 | 150.96187 | 19045 ft | 372 kts | 227° |
| 2026-05-05 04:45 | -34.41999 | 150.94064 | 19475 ft | 383 kts | 226° |
| 2026-05-05 04:46 | -34.44001 | 150.91906 | 20117 ft | 388 kts | 227° |
| 2026-05-05 04:46 | -34.46025 | 150.89720 | 20809 ft | 392 kts | 227° |
| 2026-05-05 04:46 | -34.48066 | 150.87509 | 21522 ft | 395 kts | 227° |
| 2026-05-05 04:46 | -34.50123 | 150.85276 | 22227 ft | 399 kts | 227° |
| 2026-05-05 04:47 | -34.52194 | 150.83024 | 22938 ft | 402 kts | 227° |
| 2026-05-05 04:47 | -34.54284 | 150.80740 | 23619 ft | 406 kts | 228° |
| 2026-05-05 04:47 | -34.56237 | 150.78281 | 24186 ft | 404 kts | 236° |
| 2026-05-05 04:47 | -34.58006 | 150.75609 | 24756 ft | 406 kts | 238° |
| 2026-05-05 04:48 | -34.59701 | 150.72857 | 25321 ft | 409 kts | 240° |
| 2026-05-05 04:48 | -34.61377 | 150.70040 | 25888 ft | 412 kts | 240° |
| 2026-05-05 04:48 | -34.63052 | 150.67192 | 26451 ft | 416 kts | 240° |
| 2026-05-05 04:48 | -34.64744 | 150.64322 | 27025 ft | 420 kts | 240° |
| 2026-05-05 04:49 | -34.66458 | 150.61436 | 27576 ft | 424 kts | 240° |
| 2026-05-05 04:49 | -34.68172 | 150.58562 | 28130 ft | 427 kts | 240° |
| 2026-05-05 04:49 | -34.69929 | 150.55628 | 28667 ft | 431 kts | 240° |
| 2026-05-05 04:49 | -34.71708 | 150.52662 | 29196 ft | 435 kts | 240° |
| 2026-05-05 04:50 | -34.73495 | 150.49683 | 29695 ft | 439 kts | 239° |
| 2026-05-05 04:50 | -34.75308 | 150.46663 | 30179 ft | 443 kts | 239° |
| 2026-05-05 04:50 | -34.77130 | 150.43624 | 30616 ft | 446 kts | 240° |
| 2026-05-05 04:50 | -34.78960 | 150.40569 | 31076 ft | 448 kts | 240° |
| 2026-05-05 04:51 | -34.80796 | 150.37501 | 31527 ft | 449 kts | 240° |
| 2026-05-05 04:51 | -34.82636 | 150.34422 | 31998 ft | 451 kts | 240° |
| 2026-05-05 04:51 | -34.84482 | 150.31330 | 32420 ft | 452 kts | 240° |
| 2026-05-05 04:51 | -34.86333 | 150.28227 | 32802 ft | 454 kts | 240° |
| 2026-05-05 04:52 | -34.88191 | 150.25104 | 33203 ft | 456 kts | 240° |
| 2026-05-05 04:52 | -34.90057 | 150.21966 | 33584 ft | 458 kts | 241° |
| 2026-05-05 04:52 | -34.91930 | 150.18819 | 34013 ft | 459 kts | 241° |
| 2026-05-05 04:52 | -34.93810 | 150.15654 | 34335 ft | 461 kts | 241° |
| 2026-05-05 04:53 | -34.95665 | 150.12528 | 34651 ft | 462 kts | 241° |
| 2026-05-05 04:53 | -34.97543 | 150.09363 | 35079 ft | 460 kts | 241° |
| 2026-05-05 04:53 | -34.99414 | 150.06210 | 35532 ft | 458 kts | 241° |
| 2026-05-05 04:53 | -35.01276 | 150.03069 | 35945 ft | 456 kts | 241° |
| 2026-05-05 04:54 | -35.03133 | 149.99931 | 36382 ft | 454 kts | 241° |
| 2026-05-05 04:54 | -35.04975 | 149.96815 | 36779 ft | 453 kts | 242° |
| 2026-05-05 04:54 | -35.06816 | 149.93698 | 37155 ft | 452 kts | 242° |
| 2026-05-05 04:54 | -35.08650 | 149.90587 | 37534 ft | 451 kts | 242° |
| 2026-05-05 04:55 | -35.10479 | 149.87482 | 37913 ft | 449 kts | 242° |
| 2026-05-05 04:55 | -35.12305 | 149.84379 | 38277 ft | 448 kts | 242° |
| 2026-05-05 04:55 | -35.14121 | 149.81291 | 38633 ft | 447 kts | 242° |
| 2026-05-05 04:55 | -35.15929 | 149.78214 | 38929 ft | 446 kts | 242° |
| 2026-05-05 04:56 | -35.17738 | 149.75132 | 39152 ft | 446 kts | 242° |
| 2026-05-05 04:56 | -35.19549 | 149.72042 | 39363 ft | 447 kts | 242° |
| 2026-05-05 04:56 | -35.21154 | 149.69304 | 39542 ft | 447 kts | 242° |
| 2026-05-05 04:56 | -35.22968 | 149.66205 | 39724 ft | 448 kts | 242° |
| 2026-05-05 04:57 | -35.24781 | 149.63106 | 39932 ft | 448 kts | 242° |
| 2026-05-05 04:57 | -35.26595 | 149.60001 | 40096 ft | 449 kts | 242° |
| 2026-05-05 04:57 | -35.28416 | 149.56882 | 40125 ft | 451 kts | 242° |
| 2026-05-05 04:58 | -35.32046 | 149.50658 | 40130 ft | 453 kts | 242° |
| 2026-05-05 04:58 | -35.35711 | 149.44366 | 40127 ft | 453 kts | 242° |
| 2026-05-05 04:59 | -35.39374 | 149.38066 | 40129 ft | 454 kts | 242° |
| 2026-05-05 04:59 | -35.43039 | 149.31750 | 40128 ft | 455 kts | 242° |
| 2026-05-05 05:00 | -35.46690 | 149.25447 | 40125 ft | 455 kts | 242° |
| 2026-05-05 05:00 | -35.50362 | 149.19096 | 40125 ft | 456 kts | 242° |
| 2026-05-05 05:01 | -35.54036 | 149.12729 | 40123 ft | 457 kts | 242° |
| 2026-05-05 05:01 | -35.57704 | 149.06363 | 40123 ft | 457 kts | 242° |
| 2026-05-05 05:02 | -35.61382 | 148.99966 | 40106 ft | 458 kts | 242° |
| 2026-05-05 05:02 | -35.65054 | 148.93569 | 40122 ft | 458 kts | 242° |
| 2026-05-05 05:03 | -35.68728 | 148.87155 | 40121 ft | 459 kts | 242° |
| 2026-05-05 05:03 | -35.72377 | 148.80772 | 40130 ft | 459 kts | 242° |
| 2026-05-05 05:04 | -35.76053 | 148.74332 | 40129 ft | 459 kts | 242° |
| 2026-05-05 05:04 | -35.79730 | 148.67875 | 40133 ft | 460 kts | 242° |
| 2026-05-05 05:05 | -35.83405 | 148.61413 | 40145 ft | 461 kts | 242° |
| 2026-05-05 05:05 | -35.87082 | 148.54935 | 40145 ft | 462 kts | 242° |
| 2026-05-05 05:06 | -35.90760 | 148.48439 | 40149 ft | 462 kts | 242° |
| 2026-05-05 05:06 | -35.94429 | 148.41918 | 40153 ft | 463 kts | 242° |
| 2026-05-05 05:07 | -35.98076 | 148.35423 | 40164 ft | 464 kts | 242° |
| 2026-05-05 05:07 | -36.01746 | 148.28881 | 40165 ft | 464 kts | 242° |
| 2026-05-05 05:08 | -36.05429 | 148.22303 | 40169 ft | 465 kts | 242° |
| 2026-05-05 05:08 | -36.09107 | 148.15724 | 40165 ft | 465 kts | 242° |
| 2026-05-05 05:09 | -36.12785 | 148.09136 | 40173 ft | 466 kts | 242° |
| 2026-05-05 05:09 | -36.16476 | 148.02541 | 40173 ft | 466 kts | 242° |
| 2026-05-05 05:10 | -36.20142 | 147.95974 | 40170 ft | 466 kts | 242° |
| 2026-05-05 05:10 | -36.23825 | 147.89363 | 40172 ft | 466 kts | 242° |
| 2026-05-05 05:11 | -36.27507 | 147.82742 | 40170 ft | 466 kts | 242° |
| 2026-05-05 05:11 | -36.31180 | 147.76123 | 40171 ft | 466 kts | 242° |
| 2026-05-05 05:12 | -36.34832 | 147.69541 | 40170 ft | 466 kts | 242° |
| 2026-05-05 05:12 | -36.38496 | 147.62897 | 40172 ft | 467 kts | 243° |
| 2026-05-05 05:13 | -36.42153 | 147.56240 | 40171 ft | 467 kts | 243° |
| 2026-05-05 05:13 | -36.45807 | 147.49581 | 40174 ft | 467 kts | 243° |
| 2026-05-05 05:14 | -36.48849 | 147.44032 | 40173 ft | 467 kts | 243° |
| 2026-05-05 05:14 | -36.52504 | 147.37355 | 40172 ft | 467 kts | 243° |
| 2026-05-05 05:15 | -36.56157 | 147.30669 | 40171 ft | 467 kts | 243° |
| 2026-05-05 05:15 | -36.59809 | 147.23975 | 40172 ft | 467 kts | 243° |
| 2026-05-05 05:16 | -36.63455 | 147.17275 | 40174 ft | 467 kts | 243° |
| 2026-05-05 05:16 | -36.67100 | 147.10561 | 40174 ft | 468 kts | 243° |
| 2026-05-05 05:17 | -36.70741 | 147.03844 | 40163 ft | 468 kts | 243° |
| 2026-05-05 05:17 | -36.74361 | 146.97168 | 40096 ft | 468 kts | 243° |
| 2026-05-05 05:17 | -36.76175 | 146.93806 | 39870 ft | 466 kts | 243° |
| 2026-05-05 05:18 | -36.77983 | 146.90455 | 39640 ft | 463 kts | 243° |
| 2026-05-05 05:18 | -36.79779 | 146.87124 | 39119 ft | 461 kts | 243° |
| 2026-05-05 05:18 | -36.81568 | 146.83799 | 38437 ft | 462 kts | 243° |
| 2026-05-05 05:18 | -36.83357 | 146.80470 | 37774 ft | 461 kts | 243° |
| 2026-05-05 05:19 | -36.85147 | 146.77136 | 37120 ft | 461 kts | 243° |
| 2026-05-05 05:19 | -36.86936 | 146.73801 | 36453 ft | 461 kts | 243° |
| 2026-05-05 05:19 | -36.88702 | 146.70505 | 35785 ft | 462 kts | 243° |
| 2026-05-05 05:19 | -36.90517 | 146.67118 | 35085 ft | 464 kts | 243° |
| 2026-05-05 05:20 | -36.92289 | 146.63805 | 34334 ft | 466 kts | 243° |
| 2026-05-05 05:20 | -36.94098 | 146.60417 | 33496 ft | 469 kts | 242° |
| 2026-05-05 05:20 | -36.95905 | 146.57037 | 32897 ft | 466 kts | 242° |
| 2026-05-05 05:20 | -36.97696 | 146.53688 | 32308 ft | 463 kts | 242° |
| 2026-05-05 05:21 | -36.99483 | 146.50343 | 31726 ft | 460 kts | 242° |
| 2026-05-05 05:21 | -37.01255 | 146.47021 | 31143 ft | 458 kts | 242° |
| 2026-05-05 05:21 | -37.03016 | 146.43712 | 30568 ft | 456 kts | 242° |
| 2026-05-05 05:21 | -37.04770 | 146.40411 | 29924 ft | 454 kts | 242° |
| 2026-05-05 05:22 | -37.06512 | 146.37127 | 29306 ft | 451 kts | 242° |
| 2026-05-05 05:22 | -37.08242 | 146.33867 | 28734 ft | 447 kts | 242° |
| 2026-05-05 05:22 | -37.09960 | 146.30638 | 27941 ft | 443 kts | 241° |
| 2026-05-05 05:22 | -37.11638 | 146.27439 | 27538 ft | 435 kts | 235° |
| 2026-05-05 05:23 | -37.13294 | 146.24298 | 27029 ft | 429 kts | 235° |
| 2026-05-05 05:23 | -37.14931 | 146.21199 | 26471 ft | 425 kts | 235° |
| 2026-05-05 05:23 | -37.16559 | 146.18121 | 25932 ft | 422 kts | 235° |
| 2026-05-05 05:23 | -37.18175 | 146.15064 | 25364 ft | 418 kts | 234° |
| 2026-05-05 05:24 | -37.19774 | 146.12035 | 24813 ft | 415 kts | 234° |
| 2026-05-05 05:24 | -37.21360 | 146.09025 | 24260 ft | 412 kts | 234° |
| 2026-05-05 05:24 | -37.22933 | 146.06037 | 23680 ft | 409 kts | 234° |
| 2026-05-05 05:24 | -37.24496 | 146.03065 | 23041 ft | 406 kts | 235° |
| 2026-05-05 05:25 | -37.26042 | 146.00123 | 22482 ft | 401 kts | 235° |
| 2026-05-05 05:25 | -37.27559 | 145.97231 | 21909 ft | 386 kts | 235° |
| 2026-05-05 05:25 | -37.29004 | 145.94470 | 21385 ft | 375 kts | 235° |
| 2026-05-05 05:25 | -37.30434 | 145.91740 | 20836 ft | 373 kts | 235° |
| 2026-05-05 05:26 | -37.31854 | 145.89041 | 20299 ft | 367 kts | 235° |
| 2026-05-05 05:26 | -37.33260 | 145.86369 | 19766 ft | 366 kts | 235° |
| 2026-05-05 05:26 | -37.34658 | 145.83707 | 19222 ft | 364 kts | 235° |
| 2026-05-05 05:26 | -37.36055 | 145.81042 | 18680 ft | 368 kts | 235° |
| 2026-05-05 05:27 | -37.37477 | 145.78328 | 18060 ft | 373 kts | 236° |
| 2026-05-05 05:27 | -37.38903 | 145.75603 | 17486 ft | 371 kts | 236° |
| 2026-05-05 05:27 | -37.41697 | 145.70259 | 16373 ft | 365 kts | 236° |
| 2026-05-05 05:28 | -37.43090 | 145.67592 | 15816 ft | 362 kts | 236° |
| 2026-05-05 05:28 | -37.44465 | 145.64956 | 15260 ft | 360 kts | 236° |
| 2026-05-05 05:28 | -37.45846 | 145.62342 | 14715 ft | 357 kts | 234° |
| 2026-05-05 05:28 | -37.47306 | 145.59823 | 14170 ft | 355 kts | 232° |
| 2026-05-05 05:29 | -37.48782 | 145.57339 | 13566 ft | 352 kts | 232° |
| 2026-05-05 05:29 | -37.50233 | 145.54881 | 13011 ft | 348 kts | 232° |
| 2026-05-05 05:29 | -37.51661 | 145.52444 | 12469 ft | 343 kts | 233° |
| 2026-05-05 05:29 | -37.53067 | 145.50033 | 11931 ft | 339 kts | 233° |
| 2026-05-05 05:30 | -37.54457 | 145.47643 | 11396 ft | 336 kts | 233° |
| 2026-05-05 05:30 | -37.55829 | 145.45282 | 10866 ft | 332 kts | 233° |
| 2026-05-05 05:30 | -37.57180 | 145.42959 | 10530 ft | 323 kts | 233° |
| 2026-05-05 05:30 | -37.58472 | 145.40724 | 10374 ft | 308 kts | 233° |
| 2026-05-05 05:31 | -37.59704 | 145.38592 | 10242 ft | 294 kts | 233° |
| 2026-05-05 05:31 | -37.60883 | 145.36551 | 10095 ft | 282 kts | 233° |
| 2026-05-05 05:31 | -37.61997 | 145.34621 | 9919 ft | 271 kts | 233° |
| 2026-05-05 05:31 | -37.63103 | 145.32706 | 9550 ft | 269 kts | 233° |
| 2026-05-05 05:32 | -37.64205 | 145.30799 | 9196 ft | 268 kts | 233° |
| 2026-05-05 05:32 | -37.65305 | 145.28894 | 8858 ft | 268 kts | 233° |
| 2026-05-05 05:32 | -37.66392 | 145.27009 | 8524 ft | 267 kts | 234° |
| 2026-05-05 05:32 | -37.67493 | 145.25098 | 8275 ft | 269 kts | 234° |
| 2026-05-05 05:33 | -37.68590 | 145.23193 | 7862 ft | 268 kts | 234° |
| 2026-05-05 05:33 | -37.69683 | 145.21295 | 7503 ft | 266 kts | 234° |
| 2026-05-05 05:33 | -37.70770 | 145.19418 | 7162 ft | 264 kts | 234° |
| 2026-05-05 05:33 | -37.71847 | 145.17545 | 6824 ft | 263 kts | 235° |
| 2026-05-05 05:34 | -37.72920 | 145.15676 | 6480 ft | 262 kts | 235° |
| 2026-05-05 05:34 | -37.73989 | 145.13809 | 6130 ft | 261 kts | 235° |
| 2026-05-05 05:34 | -37.75048 | 145.11962 | 5882 ft | 256 kts | 235° |
| 2026-05-05 05:34 | -37.76072 | 145.10180 | 5745 ft | 245 kts | 235° |
| 2026-05-05 05:35 | -37.77033 | 145.08507 | 5559 ft | 226 kts | 235° |
| 2026-05-05 05:35 | -37.77924 | 145.06954 | 5325 ft | 211 kts | 235° |
| 2026-05-05 05:35 | -37.78758 | 145.05497 | 5073 ft | 201 kts | 235° |
| 2026-05-05 05:35 | -37.79563 | 145.04088 | 4829 ft | 200 kts | 236° |
| 2026-05-05 05:36 | -37.80372 | 145.02671 | 4579 ft | 196 kts | 236° |
| 2026-05-05 05:36 | -37.81125 | 145.01259 | 4343 ft | 192 kts | 242° |
| 2026-05-05 05:36 | -37.81593 | 144.99696 | 4147 ft | 187 kts | 256° |
| 2026-05-05 05:36 | -37.81882 | 144.98103 | 3896 ft | 184 kts | 258° |
| 2026-05-05 05:37 | -37.82148 | 144.96521 | 3705 ft | 184 kts | 258° |
| 2026-05-05 05:37 | -37.82418 | 144.94941 | 3583 ft | 184 kts | 258° |
| 2026-05-05 05:37 | -37.82682 | 144.93358 | 3453 ft | 184 kts | 259° |
| 2026-05-05 05:37 | -37.82880 | 144.91764 | 3328 ft | 184 kts | 262° |
| 2026-05-05 05:38 | -37.83059 | 144.90168 | 3185 ft | 180 kts | 261° |
| 2026-05-05 05:38 | -37.83104 | 144.88629 | 3066 ft | 170 kts | 276° |
| 2026-05-05 05:38 | -37.82551 | 144.87367 | 2983 ft | 177 kts | 320° |
| 2026-05-05 05:38 | -37.81441 | 144.86608 | 2898 ft | 186 kts | 333° |
| 2026-05-05 05:39 | -37.80187 | 144.86259 | 2661 ft | 185 kts | 351° |
| 2026-05-05 05:39 | -37.78931 | 144.86060 | 2383 ft | 178 kts | 347° |
| 2026-05-05 05:39 | -37.77743 | 144.85820 | 2142 ft | 168 kts | 347° |
| 2026-05-05 05:39 | -37.76621 | 144.85608 | 1928 ft | 160 kts | 347° |
| 2026-05-05 05:40 | -37.75522 | 144.85402 | 1724 ft | 157 kts | 348° |
| 2026-05-05 05:40 | -37.74449 | 144.85201 | 1504 ft | 156 kts | 348° |
| 2026-05-05 05:40 | -37.73381 | 144.85001 | 1304 ft | 154 kts | 347° |
| 2026-05-05 05:40 | -37.72325 | 144.84802 | 1098 ft | 153 kts | 347° |
| 2026-05-05 05:41 | -37.71262 | 144.84602 | 896 ft | 154 kts | 347° |
| 2026-05-05 05:41 | -37.70231 | 144.84410 | 690 ft | 145 kts | 347° |
| 2026-05-05 05:41 | -37.69261 | 144.84221 | 505 ft | 139 kts | 348° |
| 2026-05-05 05:41 | -37.68297 | 144.84047 | 389 ft | 141 kts | 348° |
| 2026-05-05 05:42 | -37.67393 | 144.83874 | 377 ft | 107 kts | 351° |
| 2026-05-05 05:42 | -37.66860 | 144.83780 | 397 ft | 53 kts | 352° |
| 2026-05-05 05:42 | -37.66607 | 144.83736 | 407 ft | 20 kts | 359° |
| 2026-05-05 05:42 | -37.66518 | 144.83806 | 410 ft | 15 kts | 64° |
| 2026-05-05 05:43 | -37.66511 | 144.83901 | 410 ft | 0 kts | 91° |
| 2026-05-05 05:44 | -37.66512 | 144.83914 | 410 ft | 6 kts | 92° |
| 2026-05-05 05:44 | -37.66515 | 144.83983 | 410 ft | 10 kts | 93° |
| 2026-05-05 05:45 | -37.66520 | 144.84082 | 410 ft | 12 kts | 96° |
| 2026-05-05 05:45 | -37.66522 | 144.84097 | 410 ft | 0 kts | 96° |
| 2026-05-05 05:45 | -37.66522 | 144.84098 | 410 ft | 1 kts | 96° |
| 2026-05-05 05:46 | -37.66560 | 144.84145 | 408 ft | 11 kts | 161° |
| 2026-05-05 05:46 | -37.66648 | 144.84168 | 402 ft | 13 kts | 169° |
| 2026-05-05 05:46 | -37.66743 | 144.84192 | 399 ft | 10 kts | 166° |
| 2026-05-05 05:46 | -37.66773 | 144.84250 | 397 ft | 8 kts | 78° |
| 2026-05-05 05:47 | -37.66768 | 144.84283 | 397 ft | 0 kts | 80° |
| 2026-05-05 05:47 | -37.66766 | 144.84298 | 397 ft | 3 kts | 81° |
| 2026-05-05 05:47 | -37.66764 | 144.84315 | 397 ft | 0 kts | 81° |